createdAt,value
2023-03-13T00:03:45.135Z,2.75
2023-03-13T00:07:45.000Z,3.24
2023-03-13T00:11:44.988Z,3.74
2023-03-13T00:15:44.868Z,3.61
2023-03-13T00:19:44.977Z,3.15
2023-03-13T00:23:44.896Z,2.85
2023-03-13T00:27:44.937Z,2.63
2023-03-13T00:31:45.011Z,3.18
2023-03-13T00:35:45.053Z,2.99
2023-03-13T00:39:45.015Z,2.82
2023-03-13T00:43:45.100Z,3.60
2023-03-13T00:47:45.168Z,3.03
2023-03-13T00:51:45.787Z,2.88
2023-03-13T00:55:45.395Z,3.15
2023-03-13T00:59:45.421Z,3.21
2023-03-13T01:03:45.491Z,3.18
2023-03-13T01:07:45.576Z,3.05
2023-03-13T01:11:45.601Z,3.17
2023-03-13T01:15:45.828Z,3.42
2023-03-13T01:19:45.866Z,3.23
2023-03-13T01:23:45.899Z,3.38
2023-03-13T01:27:45.970Z,3.09
2023-03-13T01:31:46.106Z,2.50
2023-03-13T01:35:46.670Z,2.75
2023-03-13T01:39:48.155Z,3.53
2023-03-13T01:43:46.696Z,2.94
2023-03-13T01:47:48.179Z,3.28
2023-03-13T01:51:46.651Z,3.52
2023-03-13T01:55:46.882Z,3.19
2023-03-13T01:59:46.729Z,3.41
2023-03-13T02:03:47.130Z,3.13
2023-03-13T02:07:47.222Z,2.98
2023-03-13T02:11:47.465Z,3.02
2023-03-13T02:15:47.215Z,3.14
2023-03-13T02:19:47.430Z,3.10
2023-03-13T02:23:47.329Z,2.96
2023-03-13T02:27:47.406Z,2.93
2023-03-13T02:31:47.663Z,3.75
2023-03-13T02:35:47.679Z,3.36
2023-03-13T02:39:49.836Z,2.41
2023-03-13T02:43:47.982Z,2.83
2023-03-13T02:47:47.911Z,2.71
2023-03-13T02:51:48.542Z,2.50
2023-03-13T02:55:48.594Z,2.70
2023-03-13T02:59:48.578Z,3.14
2023-03-13T03:03:49.025Z,2.80
2023-03-13T03:07:50.886Z,2.94
2023-03-13T03:11:48.781Z,3.12
2023-03-13T03:15:48.785Z,2.50
2023-03-13T03:19:49.268Z,3.52
2023-03-13T03:23:49.044Z,3.08
2023-03-13T03:27:49.148Z,2.73
2023-03-13T03:31:49.509Z,3.15
2023-03-13T03:35:49.446Z,2.46
2023-03-13T03:39:49.575Z,3.32
2023-03-13T03:43:49.699Z,2.90
2023-03-13T03:47:49.834Z,3.28
2023-03-13T03:51:49.964Z,2.91
2023-03-13T03:55:50.073Z,2.86
2023-03-13T03:59:50.225Z,2.70
2023-03-13T04:03:50.465Z,3.17
2023-03-13T04:07:50.517Z,2.75
2023-03-13T04:11:51.057Z,2.87
2023-03-13T04:15:50.886Z,3.09
2023-03-13T04:19:51.398Z,2.82
2023-03-13T04:23:51.217Z,2.74
2023-03-13T04:27:51.521Z,2.93
2023-03-13T04:31:51.467Z,3.21
2023-03-13T04:35:51.836Z,2.31
2023-03-13T04:39:52.050Z,3.20
2023-03-13T04:43:51.985Z,3.19
2023-03-13T04:47:52.002Z,2.48
2023-03-13T04:51:52.040Z,2.39
2023-03-13T04:55:52.254Z,2.53
2023-03-13T04:59:52.297Z,3.11
2023-03-13T05:03:52.661Z,2.89
2023-03-13T05:07:52.746Z,3.02
2023-03-13T05:11:52.566Z,1.97
2023-03-13T05:15:52.819Z,2.23
2023-03-13T05:19:53.128Z,2.09
2023-03-13T05:23:52.983Z,1.73
2023-03-13T05:27:54.073Z,1.60
2023-03-13T05:31:52.816Z,1.93
2023-03-13T05:35:53.010Z,1.64
2023-03-13T05:39:53.524Z,1.77
2023-03-13T05:43:53.339Z,1.50
2023-03-13T05:47:53.491Z,1.45
2023-03-13T05:51:53.741Z,1.72
2023-03-13T05:55:53.793Z,1.75
2023-03-13T05:59:55.050Z,1.44
2023-03-13T06:03:54.430Z,1.65
2023-03-13T06:07:54.684Z,1.40
2023-03-13T06:11:54.502Z,1.46
2023-03-13T06:15:55.386Z,1.62
2023-03-13T06:19:54.759Z,1.68
2023-03-13T06:23:54.871Z,1.49
2023-03-13T06:27:55.005Z,1.12
2023-03-13T06:31:55.332Z,1.42
2023-03-13T06:35:57.021Z,1.37
2023-03-13T06:39:55.480Z,1.65
2023-03-13T06:43:55.637Z,1.85
2023-03-13T06:47:55.771Z,1.84
2023-03-13T06:51:55.644Z,2.23
2023-03-13T06:55:55.646Z,1.76
2023-03-13T06:59:56.012Z,1.43
2023-03-13T07:03:56.411Z,2.45
2023-03-13T07:07:56.318Z,2.48
2023-03-13T07:11:56.291Z,2.07
2023-03-13T07:15:56.331Z,1.91
2023-03-13T07:19:56.511Z,2.47
2023-03-13T07:23:55.886Z,2.18
2023-03-13T07:27:55.749Z,2.33
2023-03-13T07:31:56.679Z,2.04
2023-03-13T07:35:55.813Z,1.92
2023-03-13T07:39:55.687Z,2.61
2023-03-13T07:43:55.616Z,2.65
2023-03-13T07:47:55.879Z,2.65
2023-03-13T07:51:55.973Z,2.47
2023-03-13T07:55:56.119Z,2.64
2023-03-13T07:59:56.177Z,2.48
2023-03-13T08:03:56.851Z,3.25
2023-03-13T08:07:56.344Z,2.09
2023-03-13T08:11:57.083Z,1.83
2023-03-13T08:15:56.630Z,2.05
2023-03-13T08:19:56.505Z,1.56
2023-03-13T08:23:57.637Z,2.35
2023-03-13T08:27:56.566Z,1.84
2023-03-13T08:31:57.212Z,1.70
2023-03-13T08:35:56.852Z,2.82
2023-03-13T08:39:56.772Z,2.19
2023-03-13T08:43:57.034Z,1.90
2023-03-13T08:47:56.902Z,1.93
2023-03-13T08:51:56.861Z,1.97
2023-03-13T08:55:56.872Z,2.13
2023-03-13T08:59:57.255Z,1.38
2023-03-13T09:03:57.786Z,1.40
2023-03-13T09:07:56.831Z,1.35
2023-03-13T09:11:56.724Z,1.79
2023-03-13T09:15:56.694Z,1.44
2023-03-13T09:20:00.562Z,1.32
2023-03-13T09:23:56.658Z,1.48
2023-03-13T09:27:56.923Z,1.79
2023-03-13T09:31:56.939Z,1.48
2023-03-13T09:35:56.511Z,1.48
2023-03-13T09:39:57.817Z,1.27
2023-03-13T09:43:56.876Z,1.68
2023-03-13T09:47:56.838Z,1.76
2023-03-13T09:51:56.971Z,1.37
2023-03-13T09:55:57.099Z,1.00
2023-03-13T09:59:57.185Z,1.36
2023-03-13T10:03:57.429Z,1.34
2023-03-13T10:07:57.382Z,1.11
2023-03-13T10:11:57.521Z,1.04
2023-03-13T10:15:57.461Z,1.34
2023-03-13T10:19:57.571Z,1.33
2023-03-13T10:23:57.709Z,1.20
2023-03-13T10:27:57.930Z,1.12
2023-03-13T10:31:57.955Z,1.88
2023-03-13T10:35:57.882Z,2.03
2023-03-13T10:39:57.872Z,2.46
2023-03-13T10:43:57.790Z,1.77
2023-03-13T10:47:57.782Z,1.55
2023-03-13T10:51:57.782Z,2.15
2023-03-13T10:55:57.758Z,2.40
2023-03-13T10:59:57.730Z,1.72
2023-03-13T11:03:57.689Z,1.91
2023-03-13T11:07:57.698Z,2.06
2023-03-13T11:11:57.586Z,1.32
2023-03-13T11:15:57.662Z,1.84
2023-03-13T11:19:57.556Z,1.75
2023-03-13T11:23:57.458Z,1.78
2023-03-13T11:27:57.385Z,1.56
2023-03-13T11:31:57.690Z,2.37
2023-03-13T11:35:57.715Z,1.74
2023-03-13T11:39:58.193Z,1.65
2023-03-13T11:43:58.226Z,1.24
2023-03-13T11:47:58.333Z,1.34
2023-03-13T11:51:58.558Z,1.00
2023-03-13T11:55:58.730Z,1.06
2023-03-13T11:59:58.916Z,0.85
2023-03-13T12:03:59.295Z,0.81
2023-03-13T12:07:59.447Z,1.14
2023-03-13T12:11:59.340Z,1.06
2023-03-13T12:15:59.483Z,1.02
2023-03-13T12:19:59.477Z,1.05
2023-03-13T12:23:59.605Z,1.11
2023-03-13T12:27:59.662Z,1.15
2023-03-13T12:31:59.544Z,1.09
2023-03-13T12:35:59.695Z,1.05
2023-03-13T12:39:59.654Z,0.85
2023-03-13T12:44:08.821Z,0.91
2023-03-13T12:48:00.755Z,0.52
2023-03-13T12:51:59.744Z,0.40
2023-03-13T12:55:59.674Z,0.48
2023-03-13T12:59:59.640Z,0.74
2023-03-13T13:03:59.968Z,0.62
2023-03-13T13:07:59.866Z,0.77
2023-03-13T13:12:01.617Z,0.67
2023-03-13T13:15:59.629Z,0.59
2023-03-13T13:19:59.573Z,0.61
2023-03-13T13:24:00.270Z,0.65
2023-03-13T13:27:59.655Z,0.37
2023-03-13T13:31:59.822Z,0.55
2023-03-13T13:35:59.859Z,0.64
2023-03-13T13:39:59.978Z,0.49
2023-03-13T13:44:00.112Z,0.65
2023-03-13T13:48:00.733Z,0.60
2023-03-13T13:52:00.398Z,0.48
2023-03-13T13:56:00.572Z,0.29
2023-03-13T14:00:01.010Z,0.43
2023-03-13T14:04:15.161Z,0.58
2023-03-13T14:08:00.450Z,0.55
2023-03-13T14:12:00.510Z,0.70
2023-03-13T14:16:00.440Z,0.76
2023-03-13T14:20:00.339Z,0.97
2023-03-13T14:24:00.305Z,0.64
2023-03-13T14:28:00.752Z,0.72
2023-03-13T14:32:00.288Z,0.73
2023-03-13T14:36:00.281Z,0.56
2023-03-13T14:40:00.600Z,0.68
2023-03-13T14:44:00.398Z,0.43
2023-03-13T14:48:00.539Z,0.69
2023-03-13T14:52:00.458Z,0.62
2023-03-13T14:56:00.401Z,0.60
2023-03-13T15:00:00.350Z,0.68
2023-03-13T15:04:00.364Z,0.57
2023-03-13T15:08:00.425Z,0.71
2023-03-13T15:12:00.798Z,0.42
2023-03-13T15:15:59.985Z,0.38
2023-03-13T15:20:00.043Z,0.29
2023-03-13T15:23:59.936Z,0.51
2023-03-13T15:27:59.868Z,0.57
2023-03-13T15:31:59.898Z,0.57
2023-03-13T15:35:59.809Z,0.68
2023-03-13T15:40:00.467Z,0.58
2023-03-13T15:44:00.150Z,0.52
2023-03-13T15:47:59.712Z,0.51
2023-03-13T15:52:00.044Z,0.42
2023-03-13T15:56:00.969Z,0.57
2023-03-13T15:59:59.748Z,0.63
2023-03-13T16:03:59.949Z,0.73
2023-03-13T16:08:01.180Z,0.60
2023-03-13T16:11:59.757Z,0.45
2023-03-13T16:15:59.562Z,0.62
2023-03-13T16:19:59.743Z,0.46
2023-03-13T16:23:59.480Z,0.51
2023-03-13T16:27:59.431Z,0.85
2023-03-13T16:31:59.680Z,0.50
2023-03-13T16:35:59.505Z,0.57
2023-03-13T16:39:59.427Z,0.72
2023-03-13T16:43:59.365Z,0.46
2023-03-13T16:47:59.398Z,0.68
2023-03-13T16:51:59.509Z,0.45
2023-03-13T16:55:59.532Z,0.54
2023-03-13T16:59:59.753Z,0.61
2023-03-13T17:04:00.153Z,0.64
2023-03-13T17:08:00.133Z,0.42
2023-03-13T17:12:00.570Z,0.51
2023-03-13T17:16:01.148Z,0.41
2023-03-13T17:20:00.441Z,0.48
2023-03-13T17:24:00.654Z,0.59
2023-03-13T17:28:01.119Z,0.79
2023-03-13T17:32:02.709Z,0.39
2023-03-13T17:36:00.360Z,0.74
2023-03-13T17:40:00.670Z,0.46
2023-03-13T17:44:00.676Z,0.85
2023-03-13T17:48:00.578Z,0.64
2023-03-13T17:52:00.319Z,0.54
2023-03-13T17:56:00.150Z,0.60
2023-03-13T18:00:00.478Z,0.67
2023-03-13T18:04:00.104Z,0.68
2023-03-13T18:08:00.035Z,0.68
2023-03-13T18:12:00.054Z,0.46
2023-03-13T18:15:59.902Z,0.81
2023-03-13T18:20:00.180Z,0.67
2023-03-13T18:23:59.832Z,0.69
2023-03-13T18:27:59.895Z,0.72
2023-03-13T18:32:00.598Z,0.86
2023-03-13T18:35:59.955Z,0.60
2023-03-13T18:39:59.746Z,0.60
2023-03-13T18:43:59.891Z,0.66
2023-03-13T18:47:59.907Z,0.66
2023-03-13T18:51:59.635Z,0.58
2023-03-13T18:55:59.863Z,0.80
2023-03-13T18:59:59.786Z,0.57
2023-03-13T19:04:00.773Z,0.60
2023-03-13T19:07:59.482Z,0.70
2023-03-13T19:11:59.662Z,0.71
2023-03-13T19:15:59.663Z,0.60
2023-03-13T19:19:59.634Z,0.59
2023-03-13T19:23:59.751Z,0.63
2023-03-13T19:27:59.843Z,0.71
2023-03-13T19:32:00.355Z,0.83
2023-03-13T19:36:00.381Z,0.70
2023-03-13T19:40:00.458Z,0.81
2023-03-13T19:44:00.264Z,0.62
2023-03-13T19:48:00.449Z,0.66
2023-03-13T19:52:00.530Z,0.82
2023-03-13T19:56:00.593Z,0.87
2023-03-13T20:00:00.695Z,1.20
2023-03-13T20:04:00.808Z,1.08
2023-03-13T20:08:00.863Z,0.92
2023-03-13T20:12:00.936Z,1.10
2023-03-13T20:16:00.871Z,1.15
2023-03-13T20:20:00.908Z,1.15
2023-03-13T20:24:00.873Z,1.00
2023-03-13T20:28:00.884Z,1.21
2023-03-13T20:32:01.163Z,0.87
2023-03-13T20:36:01.135Z,1.25
2023-03-13T20:40:01.510Z,0.89
2023-03-13T20:44:01.634Z,1.81
2023-03-13T20:48:01.642Z,1.03
2023-03-13T20:52:01.455Z,0.88
2023-03-13T20:56:01.764Z,0.71
2023-03-13T21:00:02.008Z,0.88
2023-03-13T21:04:02.005Z,0.91
2023-03-13T21:08:02.277Z,0.79
2023-03-13T21:12:02.321Z,0.85
2023-03-13T21:16:02.868Z,0.81
2023-03-13T21:20:03.113Z,0.94
2023-03-13T21:24:03.433Z,0.69
2023-03-13T21:28:03.051Z,1.13
2023-03-13T21:32:03.275Z,1.02
2023-03-13T21:36:03.630Z,1.06
2023-03-13T21:40:03.625Z,0.97
2023-03-13T21:44:04.057Z,0.60
2023-03-13T21:48:04.070Z,1.31
2023-03-13T21:52:04.037Z,0.92
2023-03-13T21:56:03.996Z,1.05
2023-03-13T22:00:04.177Z,0.72
2023-03-13T22:04:04.212Z,0.90
2023-03-13T22:08:03.972Z,0.89
2023-03-13T22:12:04.062Z,1.03
2023-03-13T22:16:04.256Z,0.88
2023-03-13T22:20:03.810Z,0.88
2023-03-13T22:24:04.248Z,0.85
2023-03-13T22:28:04.013Z,0.75
2023-03-13T22:32:03.928Z,0.83
2023-03-13T22:36:04.224Z,1.14
2023-03-13T22:40:03.851Z,0.85
2023-03-13T22:44:04.471Z,1.12
2023-03-13T22:48:04.039Z,0.85
2023-03-13T22:52:03.762Z,0.58
2023-03-13T22:56:04.119Z,0.82
2023-03-13T23:00:03.569Z,1.01
2023-03-13T23:04:04.756Z,0.83
2023-03-13T23:08:03.762Z,0.82
2023-03-13T23:12:03.745Z,0.87
2023-03-13T23:16:03.676Z,0.98
2023-03-13T23:20:03.771Z,0.88
2023-03-13T23:24:03.715Z,1.04
2023-03-13T23:28:03.739Z,0.63
2023-03-13T23:32:03.583Z,0.54
2023-03-13T23:36:03.560Z,0.45
2023-03-13T23:40:03.479Z,0.82
2023-03-13T23:44:03.453Z,1.14
2023-03-13T23:48:03.549Z,0.85
2023-03-13T23:52:05.419Z,0.70
2023-03-13T23:56:03.942Z,0.91
